sensor_id;sensor_type;location;lat;lon;timestamp;P1;durP1;ratioP1;P2;durP2;ratioP2
7545;SDS011;3814;51.454;12.616;2023-04-09T07:23:22;38.30;;;18.08;;
7545;SDS011;3814;51.454;12.616;2023-04-09T07:25:50;40.22;;;18.83;;
7545;SDS011;3814;51.454;12.616;2023-04-09T07:28:18;36.47;;;17.85;;
7545;SDS011;3814;51.454;12.616;2023-04-09T07:30:43;39.22;;;18.90;;
7545;SDS011;3814;51.454;12.616;2023-04-09T07:33:12;41.80;;;19.98;;
7545;SDS011;3814;51.454;12.616;2023-04-09T07:35:43;40.67;;;19.75;;
7545;SDS011;3814;51.454;12.616;2023-04-09T07:38:12;44.75;;;20.55;;
7545;SDS011;3814;51.454;12.616;2023-04-09T07:40:38;49.00;;;22.48;;
7545;SDS011;3814;51.454;12.616;2023-04-09T07:43:03;47.50;;;22.95;;
7545;SDS011;3814;51.454;12.616;2023-04-09T07:45:29;46.90;;;22.90;;
7545;SDS011;3814;51.454;12.616;2023-04-09T07:47:55;46.63;;;22.20;;
7545;SDS011;3814;51.454;12.616;2023-04-09T07:50:20;49.72;;;23.42;;
7545;SDS011;3814;51.454;12.616;2023-04-09T07:52:46;48.28;;;23.38;;
7545;SDS011;3814;51.454;12.616;2023-04-09T07:55:11;49.55;;;24.35;;
7545;SDS011;3814;51.454;12.616;2023-04-09T07:57:36;52.90;;;25.52;;
7545;SDS011;3814;51.454;12.616;2023-04-09T08:00:02;53.97;;;26.77;;
7545;SDS011;3814;51.454;12.616;2023-04-09T08:02:28;54.08;;;27.90;;
7545;SDS011;3814;51.454;12.616;2023-04-09T08:04:54;54.08;;;27.83;;
7545;SDS011;3814;51.454;12.616;2023-04-09T08:07:19;56.53;;;28.35;;
7545;SDS011;3814;51.454;12.616;2023-04-09T08:09:44;55.13;;;27.95;;
7545;SDS011;3814;51.454;12.616;2023-04-09T08:12:10;50.65;;;26.27;;
7545;SDS011;3814;51.454;12.616;2023-04-09T08:14:35;49.67;;;25.63;;
7545;SDS011;3814;51.454;12.616;2023-04-09T08:17:01;48.72;;;25.45;;
7545;SDS011;3814;51.454;12.616;2023-04-09T08:19:26;47.95;;;24.08;;
7545;SDS011;3814;51.454;12.616;2023-04-09T08:21:52;45.55;;;23.55;;
7545;SDS011;3814;51.454;12.616;2023-04-09T08:24:19;41.88;;;21.08;;
7545;SDS011;3814;51.454;12.616;2023-04-09T08:26:48;35.72;;;17.83;;
7545;SDS011;3814;51.454;12.616;2023-04-09T08:29:13;42.03;;;20.45;;
7545;SDS011;3814;51.454;12.616;2023-04-09T08:31:39;44.38;;;22.20;;
7545;SDS011;3814;51.454;12.616;2023-04-09T08:34:04;42.20;;;21.52;;
7545;SDS011;3814;51.454;12.616;2023-04-09T08:36:30;37.55;;;20.08;;
7545;SDS011;3814;51.454;12.616;2023-04-09T08:38:56;35.83;;;18.27;;
7545;SDS011;3814;51.454;12.616;2023-04-09T08:41:22;33.97;;;18.10;;
7545;SDS011;3814;51.454;12.616;2023-04-09T08:43:49;32.90;;;17.23;;
7545;SDS011;3814;51.454;12.616;2023-04-09T08:46:16;32.95;;;15.95;;
7545;SDS011;3814;51.454;12.616;2023-04-09T08:48:45;32.28;;;16.60;;
7545;SDS011;3814;51.454;12.616;2023-04-09T08:51:12;31.05;;;16.83;;
7545;SDS011;3814;51.454;12.616;2023-04-09T08:53:48;33.30;;;17.40;;
7545;SDS011;3814;51.454;12.616;2023-04-09T08:56:17;30.17;;;16.27;;
7545;SDS011;3814;51.454;12.616;2023-04-09T08:58:43;29.17;;;14.20;;
7545;SDS011;3814;51.454;12.616;2023-04-09T09:01:26;27.02;;;14.20;;
7545;SDS011;3814;51.454;12.616;2023-04-09T09:06:26;25.42;;;13.23;;
7545;SDS011;3814;51.454;12.616;2023-04-09T09:11:44;23.25;;;12.57;;
7545;SDS011;3814;51.454;12.616;2023-04-09T09:14:13;22.08;;;12.40;;
7545;SDS011;3814;51.454;12.616;2023-04-09T09:16:40;24.77;;;13.13;;
7545;SDS011;3814;51.454;12.616;2023-04-09T09:19:29;24.98;;;12.82;;
7545;SDS011;3814;51.454;12.616;2023-04-09T09:24:25;23.38;;;12.85;;
7545;SDS011;3814;51.454;12.616;2023-04-09T09:26:51;24.48;;;12.88;;
7545;SDS011;3814;51.454;12.616;2023-04-09T09:29:18;26.92;;;12.75;;
7545;SDS011;3814;51.454;12.616;2023-04-09T09:31:48;24.40;;;12.60;;
7545;SDS011;3814;51.454;12.616;2023-04-09T09:34:14;24.35;;;12.40;;
7545;SDS011;3814;51.454;12.616;2023-04-09T09:36:43;25.25;;;12.63;;
7545;SDS011;3814;51.454;12.616;2023-04-09T09:39:09;20.42;;;10.98;;
7545;SDS011;3814;51.454;12.616;2023-04-09T09:41:36;21.45;;;11.57;;
7545;SDS011;3814;51.454;12.616;2023-04-09T09:44:08;23.77;;;12.77;;
7545;SDS011;3814;51.454;12.616;2023-04-09T09:46:36;25.52;;;13.48;;
7545;SDS011;3814;51.454;12.616;2023-04-09T09:49:03;23.17;;;12.13;;
7545;SDS011;3814;51.454;12.616;2023-04-09T09:51:30;20.67;;;11.70;;
7545;SDS011;3814;51.454;12.616;2023-04-09T09:53:56;25.27;;;13.00;;
7545;SDS011;3814;51.454;12.616;2023-04-09T09:56:24;25.13;;;12.93;;
7545;SDS011;3814;51.454;12.616;2023-04-09T09:59:18;26.05;;;13.50;;
7545;SDS011;3814;51.454;12.616;2023-04-09T10:01:49;24.20;;;13.02;;
7545;SDS011;3814;51.454;12.616;2023-04-09T10:04:17;24.17;;;12.48;;
7545;SDS011;3814;51.454;12.616;2023-04-09T10:06:44;24.80;;;12.63;;
7545;SDS011;3814;51.454;12.616;2023-04-09T10:09:10;22.73;;;12.30;;
7545;SDS011;3814;51.454;12.616;2023-04-09T10:11:36;24.15;;;12.75;;
7545;SDS011;3814;51.454;12.616;2023-04-09T10:14:02;23.20;;;12.00;;
7545;SDS011;3814;51.454;12.616;2023-04-09T10:16:29;22.42;;;12.02;;
7545;SDS011;3814;51.454;12.616;2023-04-09T10:18:55;22.70;;;12.63;;
7545;SDS011;3814;51.454;12.616;2023-04-09T10:24:12;21.85;;;12.27;;
7545;SDS011;3814;51.454;12.616;2023-04-09T10:26:44;24.23;;;12.90;;
7545;SDS011;3814;51.454;12.616;2023-04-09T10:29:13;23.35;;;12.10;;
7545;SDS011;3814;51.454;12.616;2023-04-09T10:34:22;21.52;;;11.13;;
7545;SDS011;3814;51.454;12.616;2023-04-09T10:36:49;22.83;;;12.52;;
7545;SDS011;3814;51.454;12.616;2023-04-09T10:39:20;24.27;;;12.90;;
7545;SDS011;3814;51.454;12.616;2023-04-09T10:41:45;24.13;;;13.15;;
7545;SDS011;3814;51.454;12.616;2023-04-09T10:44:22;27.70;;;14.45;;
7545;SDS011;3814;51.454;12.616;2023-04-09T10:46:52;27.13;;;14.02;;
7545;SDS011;3814;51.454;12.616;2023-04-09T10:49:19;26.20;;;14.02;;
7545;SDS011;3814;51.454;12.616;2023-04-09T10:52:02;26.50;;;13.50;;
7545;SDS011;3814;51.454;12.616;2023-04-09T10:54:43;26.48;;;13.77;;
7545;SDS011;3814;51.454;12.616;2023-04-09T10:57:13;25.10;;;13.55;;
7545;SDS011;3814;51.454;12.616;2023-04-09T10:59:47;25.98;;;13.75;;
7545;SDS011;3814;51.454;12.616;2023-04-09T11:05:24;26.55;;;13.90;;
7545;SDS011;3814;51.454;12.616;2023-04-09T11:07:57;23.42;;;12.40;;
7545;SDS011;3814;51.454;12.616;2023-04-09T11:10:27;24.92;;;13.77;;
7545;SDS011;3814;51.454;12.616;2023-04-09T11:12:56;23.23;;;12.30;;
7545;SDS011;3814;51.454;12.616;2023-04-09T11:15:22;26.45;;;13.05;;
7545;SDS011;3814;51.454;12.616;2023-04-09T11:20:21;26.50;;;13.25;;
7545;SDS011;3814;51.454;12.616;2023-04-09T11:22:51;25.58;;;13.23;;
7545;SDS011;3814;51.454;12.616;2023-04-09T11:25:18;25.02;;;12.43;;
7545;SDS011;3814;51.454;12.616;2023-04-09T11:27:49;25.35;;;12.88;;
7545;SDS011;3814;51.454;12.616;2023-04-09T11:30:14;27.67;;;12.85;;
7545;SDS011;3814;51.454;12.616;2023-04-09T11:32:40;24.77;;;12.85;;
7545;SDS011;3814;51.454;12.616;2023-04-09T11:35:12;26.77;;;13.30;;
7545;SDS011;3814;51.454;12.616;2023-04-09T11:37:38;23.13;;;12.65;;
7545;SDS011;3814;51.454;12.616;2023-04-09T11:40:04;24.50;;;12.85;;
7545;SDS011;3814;51.454;12.616;2023-04-09T11:42:30;27.17;;;13.13;;
7545;SDS011;3814;51.454;12.616;2023-04-09T11:44:55;25.88;;;13.20;;
7545;SDS011;3814;51.454;12.616;2023-04-09T11:47:21;27.05;;;13.80;;
7545;SDS011;3814;51.454;12.616;2023-04-09T18:09:56;21.52;;;10.50;;
7545;SDS011;3814;51.454;12.616;2023-04-09T18:12:21;19.25;;;10.82;;
7545;SDS011;3814;51.454;12.616;2023-04-09T18:14:49;21.73;;;11.40;;
7545;SDS011;3814;51.454;12.616;2023-04-09T18:17:15;20.58;;;10.70;;
7545;SDS011;3814;51.454;12.616;2023-04-09T18:19:41;23.15;;;11.10;;
7545;SDS011;3814;51.454;12.616;2023-04-09T18:22:08;20.35;;;10.45;;
7545;SDS011;3814;51.454;12.616;2023-04-09T18:24:33;22.50;;;11.32;;
7545;SDS011;3814;51.454;12.616;2023-04-09T18:26:59;21.23;;;10.70;;
7545;SDS011;3814;51.454;12.616;2023-04-09T18:29:28;21.60;;;10.98;;
7545;SDS011;3814;51.454;12.616;2023-04-09T18:32:02;20.15;;;10.68;;
7545;SDS011;3814;51.454;12.616;2023-04-09T18:34:37;20.55;;;10.65;;
7545;SDS011;3814;51.454;12.616;2023-04-09T18:37:03;23.42;;;11.23;;
7545;SDS011;3814;51.454;12.616;2023-04-09T18:39:29;22.55;;;11.50;;
7545;SDS011;3814;51.454;12.616;2023-04-09T18:42:01;25.92;;;12.30;;
7545;SDS011;3814;51.454;12.616;2023-04-09T19:03:32;32.25;;;14.80;;
7545;SDS011;3814;51.454;12.616;2023-04-09T19:06:08;30.40;;;15.10;;
7545;SDS011;3814;51.454;12.616;2023-04-09T19:08:35;34.05;;;16.42;;
7545;SDS011;3814;51.454;12.616;2023-04-09T19:16:12;60.40;;;23.30;;
7545;SDS011;3814;51.454;12.616;2023-04-09T19:18:38;50.03;;;20.55;;
7545;SDS011;3814;51.454;12.616;2023-04-09T19:21:27;47.08;;;19.63;;
7545;SDS011;3814;51.454;12.616;2023-04-09T19:23:54;44.28;;;18.02;;
7545;SDS011;3814;51.454;12.616;2023-04-09T19:26:20;42.60;;;17.40;;
7545;SDS011;3814;51.454;12.616;2023-04-09T19:28:46;36.55;;;15.95;;
7545;SDS011;3814;51.454;12.616;2023-04-09T19:31:11;37.47;;;16.80;;
7545;SDS011;3814;51.454;12.616;2023-04-09T19:33:38;40.10;;;17.50;;
7545;SDS011;3814;51.454;12.616;2023-04-09T19:36:04;36.63;;;15.75;;
7545;SDS011;3814;51.454;12.616;2023-04-09T19:38:31;37.80;;;16.13;;
7545;SDS011;3814;51.454;12.616;2023-04-09T19:40:57;36.78;;;15.65;;
7545;SDS011;3814;51.454;12.616;2023-04-09T19:43:23;34.38;;;14.75;;
7545;SDS011;3814;51.454;12.616;2023-04-09T19:45:48;37.67;;;16.05;;
7545;SDS011;3814;51.454;12.616;2023-04-09T19:48:14;33.85;;;14.75;;
7545;SDS011;3814;51.454;12.616;2023-04-09T19:50:39;35.15;;;14.30;;
7545;SDS011;3814;51.454;12.616;2023-04-09T19:53:06;31.58;;;13.70;;
7545;SDS011;3814;51.454;12.616;2023-04-09T19:55:32;31.65;;;13.88;;
7545;SDS011;3814;51.454;12.616;2023-04-09T19:57:58;32.97;;;14.65;;
7545;SDS011;3814;51.454;12.616;2023-04-09T20:00:24;27.48;;;13.45;;
7545;SDS011;3814;51.454;12.616;2023-04-09T20:02:50;27.10;;;13.38;;
7545;SDS011;3814;51.454;12.616;2023-04-09T20:05:16;30.45;;;13.85;;
7545;SDS011;3814;51.454;12.616;2023-04-09T20:07:44;30.08;;;13.70;;
7545;SDS011;3814;51.454;12.616;2023-04-09T20:10:12;28.80;;;13.30;;
7545;SDS011;3814;51.454;12.616;2023-04-09T20:12:38;27.83;;;13.45;;
7545;SDS011;3814;51.454;12.616;2023-04-09T20:15:04;28.90;;;14.23;;
7545;SDS011;3814;51.454;12.616;2023-04-09T20:17:31;28.70;;;13.75;;
7545;SDS011;3814;51.454;12.616;2023-04-09T20:19:57;29.65;;;14.60;;
7545;SDS011;3814;51.454;12.616;2023-04-09T20:22:23;30.30;;;14.35;;
7545;SDS011;3814;51.454;12.616;2023-04-09T20:24:49;31.73;;;14.20;;
7545;SDS011;3814;51.454;12.616;2023-04-09T20:27:15;32.92;;;14.50;;
7545;SDS011;3814;51.454;12.616;2023-04-09T20:29:42;26.90;;;14.38;;
7545;SDS011;3814;51.454;12.616;2023-04-09T20:32:07;33.13;;;16.08;;
7545;SDS011;3814;51.454;12.616;2023-04-09T20:34:32;29.88;;;14.68;;
7545;SDS011;3814;51.454;12.616;2023-04-09T20:36:58;31.92;;;15.07;;
7545;SDS011;3814;51.454;12.616;2023-04-09T20:39:23;29.98;;;14.52;;
7545;SDS011;3814;51.454;12.616;2023-04-09T20:41:51;31.02;;;14.82;;
7545;SDS011;3814;51.454;12.616;2023-04-09T20:44:17;30.77;;;15.70;;
7545;SDS011;3814;51.454;12.616;2023-04-09T20:46:42;34.17;;;15.65;;
7545;SDS011;3814;51.454;12.616;2023-04-09T20:49:07;32.25;;;14.93;;
7545;SDS011;3814;51.454;12.616;2023-04-09T20:51:33;31.55;;;14.50;;
7545;SDS011;3814;51.454;12.616;2023-04-09T20:53:59;31.52;;;14.60;;
7545;SDS011;3814;51.454;12.616;2023-04-09T20:56:25;33.63;;;15.95;;
7545;SDS011;3814;51.454;12.616;2023-04-09T20:58:50;37.20;;;17.17;;
7545;SDS011;3814;51.454;12.616;2023-04-09T21:01:16;35.35;;;16.77;;
7545;SDS011;3814;51.454;12.616;2023-04-09T21:03:42;35.58;;;16.58;;
7545;SDS011;3814;51.454;12.616;2023-04-09T21:06:07;35.47;;;15.98;;
7545;SDS011;3814;51.454;12.616;2023-04-09T21:08:33;34.83;;;15.55;;
7545;SDS011;3814;51.454;12.616;2023-04-09T21:10:58;37.40;;;16.90;;
7545;SDS011;3814;51.454;12.616;2023-04-09T21:13:23;31.95;;;14.48;;
7545;SDS011;3814;51.454;12.616;2023-04-09T21:15:49;36.88;;;17.00;;
7545;SDS011;3814;51.454;12.616;2023-04-09T21:18:15;38.42;;;17.35;;
7545;SDS011;3814;51.454;12.616;2023-04-09T21:20:47;34.22;;;16.08;;
7545;SDS011;3814;51.454;12.616;2023-04-09T21:23:13;35.95;;;16.27;;
7545;SDS011;3814;51.454;12.616;2023-04-09T21:25:41;33.88;;;15.73;;
7545;SDS011;3814;51.454;12.616;2023-04-09T21:28:06;32.45;;;14.88;;
7545;SDS011;3814;51.454;12.616;2023-04-09T21:30:32;30.90;;;14.05;;
7545;SDS011;3814;51.454;12.616;2023-04-09T21:33:00;35.25;;;15.52;;
7545;SDS011;3814;51.454;12.616;2023-04-09T21:35:26;32.28;;;14.93;;
7545;SDS011;3814;51.454;12.616;2023-04-09T21:37:51;34.67;;;15.88;;
7545;SDS011;3814;51.454;12.616;2023-04-09T21:40:16;37.03;;;16.80;;
7545;SDS011;3814;51.454;12.616;2023-04-09T21:42:42;34.80;;;16.45;;
7545;SDS011;3814;51.454;12.616;2023-04-09T21:45:07;37.80;;;16.83;;
7545;SDS011;3814;51.454;12.616;2023-04-09T21:47:33;45.20;;;19.83;;
7545;SDS011;3814;51.454;12.616;2023-04-09T21:49:58;44.95;;;20.20;;
7545;SDS011;3814;51.454;12.616;2023-04-09T21:52:23;45.53;;;20.48;;
7545;SDS011;3814;51.454;12.616;2023-04-09T21:54:49;47.85;;;20.92;;
7545;SDS011;3814;51.454;12.616;2023-04-09T21:57:14;51.38;;;22.27;;
7545;SDS011;3814;51.454;12.616;2023-04-09T21:59:39;44.33;;;19.52;;
7545;SDS011;3814;51.454;12.616;2023-04-09T22:02:05;47.38;;;21.05;;
7545;SDS011;3814;51.454;12.616;2023-04-09T22:04:31;39.67;;;18.00;;
7545;SDS011;3814;51.454;12.616;2023-04-09T22:06:58;40.92;;;18.63;;
7545;SDS011;3814;51.454;12.616;2023-04-09T22:09:24;44.90;;;20.20;;
7545;SDS011;3814;51.454;12.616;2023-04-09T22:11:49;41.72;;;18.25;;
7545;SDS011;3814;51.454;12.616;2023-04-09T22:14:15;42.60;;;18.35;;
7545;SDS011;3814;51.454;12.616;2023-04-09T22:16:40;39.97;;;17.55;;
7545;SDS011;3814;51.454;12.616;2023-04-09T22:19:05;34.65;;;15.32;;
7545;SDS011;3814;51.454;12.616;2023-04-09T22:21:31;33.30;;;14.57;;
7545;SDS011;3814;51.454;12.616;2023-04-09T22:23:57;36.22;;;15.52;;
7545;SDS011;3814;51.454;12.616;2023-04-09T22:26:22;34.58;;;15.13;;
7545;SDS011;3814;51.454;12.616;2023-04-09T22:28:47;33.47;;;15.48;;
7545;SDS011;3814;51.454;12.616;2023-04-09T22:31:14;30.95;;;14.10;;
7545;SDS011;3814;51.454;12.616;2023-04-09T22:33:40;36.13;;;15.48;;
7545;SDS011;3814;51.454;12.616;2023-04-09T22:36:05;36.72;;;16.50;;
7545;SDS011;3814;51.454;12.616;2023-04-09T22:38:31;36.53;;;15.98;;
7545;SDS011;3814;51.454;12.616;2023-04-09T22:40:56;34.72;;;15.95;;
7545;SDS011;3814;51.454;12.616;2023-04-09T22:43:21;36.08;;;15.40;;
7545;SDS011;3814;51.454;12.616;2023-04-09T22:45:50;32.30;;;14.68;;
7545;SDS011;3814;51.454;12.616;2023-04-09T22:48:16;36.47;;;16.00;;
7545;SDS011;3814;51.454;12.616;2023-04-09T22:50:42;35.60;;;15.10;;
7545;SDS011;3814;51.454;12.616;2023-04-09T22:53:08;29.25;;;13.57;;
7545;SDS011;3814;51.454;12.616;2023-04-09T22:55:33;30.15;;;13.55;;
7545;SDS011;3814;51.454;12.616;2023-04-09T22:58:02;30.08;;;13.80;;
7545;SDS011;3814;51.454;12.616;2023-04-09T23:00:27;32.83;;;14.68;;
7545;SDS011;3814;51.454;12.616;2023-04-09T23:02:52;33.42;;;14.80;;
7545;SDS011;3814;51.454;12.616;2023-04-09T23:05:18;29.58;;;13.45;;
7545;SDS011;3814;51.454;12.616;2023-04-09T23:07:43;32.60;;;14.35;;
7545;SDS011;3814;51.454;12.616;2023-04-09T23:10:10;30.23;;;14.02;;
7545;SDS011;3814;51.454;12.616;2023-04-09T23:12:39;29.80;;;13.55;;
7545;SDS011;3814;51.454;12.616;2023-04-09T23:15:05;32.78;;;14.50;;
7545;SDS011;3814;51.454;12.616;2023-04-09T23:17:31;33.55;;;14.55;;
7545;SDS011;3814;51.454;12.616;2023-04-09T23:19:56;35.85;;;15.00;;
7545;SDS011;3814;51.454;12.616;2023-04-09T23:22:21;33.75;;;14.90;;
7545;SDS011;3814;51.454;12.616;2023-04-09T23:24:48;33.58;;;14.52;;
7545;SDS011;3814;51.454;12.616;2023-04-09T23:27:13;35.15;;;14.20;;
7545;SDS011;3814;51.454;12.616;2023-04-09T23:29:38;33.47;;;13.77;;
7545;SDS011;3814;51.454;12.616;2023-04-09T23:32:04;34.30;;;14.98;;
7545;SDS011;3814;51.454;12.616;2023-04-09T23:34:29;38.40;;;16.75;;
7545;SDS011;3814;51.454;12.616;2023-04-09T23:36:55;36.78;;;16.20;;
7545;SDS011;3814;51.454;12.616;2023-04-09T23:39:20;34.38;;;15.43;;
7545;SDS011;3814;51.454;12.616;2023-04-09T23:41:46;36.30;;;16.48;;
7545;SDS011;3814;51.454;12.616;2023-04-09T23:44:11;32.90;;;14.93;;
7545;SDS011;3814;51.454;12.616;2023-04-09T23:46:36;31.20;;;14.48;;
7545;SDS011;3814;51.454;12.616;2023-04-09T23:49:02;34.92;;;15.88;;
7545;SDS011;3814;51.454;12.616;2023-04-09T23:51:27;35.17;;;16.85;;
7545;SDS011;3814;51.454;12.616;2023-04-09T23:53:52;36.85;;;15.50;;
7545;SDS011;3814;51.454;12.616;2023-04-09T23:56:17;36.05;;;14.98;;
7545;SDS011;3814;51.454;12.616;2023-04-09T23:58:43;37.78;;;16.80;;
